createdAt,value
2023-04-08T00:01:03.586Z,21.02
2023-04-08T00:03:32.675Z,17.85
2023-04-08T00:06:03.648Z,17.73
2023-04-08T00:08:32.264Z,18.48
2023-04-08T00:11:00.911Z,16.95
2023-04-08T00:13:29.329Z,19.42
2023-04-08T00:15:58.395Z,19.20
2023-04-08T00:18:27.356Z,18.55
2023-04-08T00:20:57.427Z,18.52
2023-04-08T00:23:25.950Z,17.20
2023-04-08T00:25:54.777Z,20.90
2023-04-08T00:28:23.152Z,16.05
2023-04-08T00:30:53.395Z,17.90
2023-04-08T00:33:21.937Z,17.83
2023-04-08T00:35:51.760Z,19.20
2023-04-08T00:38:20.098Z,18.60
2023-04-08T00:40:48.722Z,17.45
2023-04-08T00:43:17.131Z,17.25
2023-04-08T00:45:46.100Z,20.40
2023-04-08T00:48:14.555Z,18.92
2023-04-08T00:50:47.486Z,18.38
2023-04-08T00:53:18.393Z,16.77
2023-04-08T00:55:47.364Z,16.83
2023-04-08T00:58:15.672Z,21.35
2023-04-08T01:01:10.411Z,17.17
2023-04-08T01:04:36.569Z,19.33
2023-04-08T01:07:14.055Z,18.35
2023-04-08T01:09:49.633Z,20.85
2023-04-08T01:12:30.437Z,15.88
2023-04-08T01:15:08.431Z,17.58
2023-04-08T01:17:37.242Z,16.65
2023-04-08T01:20:06.830Z,16.58
2023-04-08T01:23:10.151Z,19.40
2023-04-08T01:25:38.827Z,18.15
2023-04-08T01:28:18.258Z,16.50
2023-04-08T01:30:47.660Z,14.88
2023-04-08T01:33:17.685Z,15.38
2023-04-08T01:35:46.346Z,16.58
2023-04-08T01:38:18.232Z,15.45
2023-04-08T01:40:47.638Z,17.08
2023-04-08T01:43:17.794Z,13.82
2023-04-08T01:45:47.612Z,15.88
2023-04-08T01:48:16.650Z,15.45
2023-04-08T01:50:45.192Z,14.73
2023-04-08T01:53:15.649Z,15.05
2023-04-08T01:55:44.022Z,14.88
2023-04-08T01:58:19.408Z,15.77
2023-04-08T02:00:47.797Z,15.23
2023-04-08T02:08:13.038Z,15.88
2023-04-08T02:10:41.348Z,14.18
2023-04-08T02:13:09.936Z,14.35
2023-04-08T02:15:40.889Z,17.02
2023-04-08T02:18:16.802Z,14.25
2023-04-08T02:20:59.654Z,15.32
2023-04-08T02:23:29.747Z,15.90
2023-04-08T02:25:58.076Z,16.60
2023-04-08T02:28:28.897Z,17.55
2023-04-08T02:30:57.219Z,16.67
2023-04-08T02:33:25.924Z,20.95
2023-04-08T02:35:55.023Z,12.50
2023-04-08T02:38:30.027Z,16.45
2023-04-08T02:43:31.989Z,13.13
2023-04-08T02:46:03.441Z,19.42
2023-04-08T02:48:32.411Z,15.30
2023-04-08T02:51:00.752Z,15.10
2023-04-08T02:53:29.353Z,13.07
2023-04-08T02:55:57.691Z,15.23
2023-04-08T02:58:26.515Z,14.43
2023-04-08T03:00:54.969Z,13.02
2023-04-08T03:03:28.637Z,14.60
2023-04-08T03:05:57.338Z,16.58
2023-04-08T03:08:26.022Z,15.43
2023-04-08T03:10:54.343Z,15.60
2023-04-08T03:13:23.014Z,14.57
2023-04-08T03:15:51.369Z,13.50
2023-04-08T03:18:20.061Z,14.13
2023-04-08T03:20:48.403Z,18.05
2023-04-08T03:23:17.015Z,14.20
2023-04-08T03:25:45.542Z,15.27
2023-04-08T03:28:14.142Z,14.93
2023-04-08T03:30:42.612Z,16.10
2023-04-08T03:33:11.394Z,16.15
2023-04-08T03:35:39.957Z,16.35
2023-04-08T03:38:08.982Z,15.13
2023-04-08T03:40:37.281Z,15.80
2023-04-08T03:43:06.901Z,12.77
2023-04-08T03:45:35.179Z,16.25
2023-04-08T03:48:04.224Z,17.17
2023-04-08T03:50:32.691Z,13.25
2023-04-08T03:53:01.239Z,12.77
2023-04-08T03:55:29.450Z,12.88
2023-04-08T03:57:57.952Z,17.30
2023-04-08T04:00:26.202Z,14.25
2023-04-08T04:02:56.517Z,14.93
2023-04-08T04:05:24.869Z,15.98
2023-04-08T04:07:53.444Z,15.75
2023-04-08T04:10:21.738Z,15.65
2023-04-08T04:12:50.858Z,15.73
2023-04-08T04:15:19.128Z,13.40
2023-04-08T04:17:51.169Z,19.08
2023-04-08T04:20:19.689Z,16.08
2023-04-08T04:22:48.275Z,12.55
2023-04-08T04:25:16.509Z,15.93
2023-04-08T04:27:45.145Z,16.63
2023-04-08T04:30:15.764Z,14.00
2023-04-08T04:32:44.547Z,15.75
2023-04-08T04:35:13.123Z,13.73
2023-04-08T04:37:42.024Z,15.15
2023-04-08T04:40:10.896Z,16.83
2023-04-08T04:42:39.457Z,11.98
2023-04-08T04:45:09.631Z,12.45
2023-04-08T04:47:38.338Z,17.13
2023-04-08T04:50:07.614Z,16.00
2023-04-08T04:52:37.387Z,13.45
2023-04-08T04:55:06.554Z,13.23
2023-04-08T04:57:35.512Z,16.45
2023-04-08T05:00:05.586Z,16.33
2023-04-08T05:02:35.132Z,14.23
2023-04-08T05:05:03.964Z,12.15
2023-04-08T05:07:36.447Z,17.60
2023-04-08T05:10:06.124Z,21.35
2023-04-08T05:12:34.744Z,19.50
2023-04-08T05:15:03.365Z,14.13
2023-04-08T05:17:32.138Z,15.75
2023-04-08T05:20:01.041Z,13.88
2023-04-08T05:22:29.628Z,15.98
2023-04-08T05:24:57.916Z,16.25
2023-04-08T05:27:26.510Z,16.40
2023-04-08T05:29:54.842Z,19.13
2023-04-08T05:32:23.421Z,16.17
2023-04-08T05:34:51.614Z,18.73
2023-04-08T05:37:20.385Z,15.85
2023-04-08T05:39:48.656Z,16.52
2023-04-08T05:42:17.460Z,12.15
2023-04-08T05:44:45.776Z,15.10
2023-04-08T05:47:15.213Z,16.33
2023-04-08T05:49:43.824Z,16.20
2023-04-08T05:52:12.383Z,15.32
2023-04-08T05:54:44.315Z,13.15
2023-04-08T05:57:12.985Z,14.52
2023-04-08T05:59:41.212Z,14.18
2023-04-08T06:02:10.104Z,17.30
2023-04-08T06:04:38.704Z,17.50
2023-04-08T06:07:08.637Z,17.35
2023-04-08T06:09:37.631Z,24.38
2023-04-08T06:12:06.412Z,21.15
2023-04-08T06:14:34.799Z,13.90
2023-04-08T06:17:03.499Z,14.82
2023-04-08T06:19:31.747Z,16.17
2023-04-08T06:22:00.382Z,18.70
2023-04-08T06:24:29.612Z,19.88
2023-04-08T06:26:58.271Z,15.45
2023-04-08T06:29:26.502Z,17.88
2023-04-08T06:31:55.520Z,14.77
2023-04-08T06:34:23.868Z,24.50
2023-04-08T06:36:52.657Z,16.63
2023-04-08T06:39:21.897Z,14.75
2023-04-08T06:41:51.370Z,16.17
2023-04-08T06:44:38.974Z,16.40
2023-04-08T06:47:07.774Z,14.85
2023-04-08T06:49:37.526Z,17.08
2023-04-08T06:52:07.086Z,19.08
2023-04-08T06:54:35.619Z,16.98
2023-04-08T06:57:04.484Z,18.48
2023-04-08T06:59:32.899Z,18.15
2023-04-08T07:02:01.685Z,15.15
2023-04-08T07:04:29.985Z,17.67
2023-04-08T07:06:58.519Z,16.60
2023-04-08T07:09:26.776Z,15.35
2023-04-08T07:11:58.636Z,15.45
2023-04-08T07:14:26.975Z,17.35
2023-04-08T07:16:56.482Z,14.75
2023-04-08T07:19:24.769Z,16.50
2023-04-08T07:21:53.416Z,15.43
2023-04-08T07:24:21.845Z,14.30
2023-04-08T07:26:50.571Z,18.52
2023-04-08T07:29:18.847Z,14.98
2023-04-08T07:31:47.496Z,15.68
2023-04-08T07:34:16.777Z,13.82
2023-04-08T07:36:46.000Z,20.42
2023-04-08T07:39:14.347Z,15.90
2023-04-08T07:41:42.945Z,15.02
2023-04-08T07:44:11.444Z,21.75
2023-04-08T07:46:40.132Z,14.65
2023-04-08T07:49:08.502Z,16.80
2023-04-08T07:51:37.146Z,15.65
2023-04-08T07:54:05.649Z,15.98
2023-04-08T07:56:34.334Z,16.50
2023-04-08T07:59:02.651Z,16.77
2023-04-08T08:01:34.964Z,15.13
2023-04-08T08:04:03.797Z,16.73
2023-04-08T08:06:32.611Z,21.30
2023-04-08T08:09:01.246Z,21.67
2023-04-08T08:11:29.983Z,19.25
2023-04-08T08:13:58.293Z,19.83
2023-04-08T08:16:30.748Z,17.85
2023-04-08T08:18:59.733Z,22.50
2023-04-08T08:21:28.475Z,25.05
2023-04-08T08:23:57.085Z,23.42
2023-04-08T08:26:25.895Z,19.27
2023-04-08T08:28:54.636Z,22.27
2023-04-08T08:31:23.278Z,23.55
2023-04-08T08:33:51.831Z,25.60
2023-04-08T08:36:20.792Z,23.38
2023-04-08T08:38:49.229Z,23.70
2023-04-08T08:41:18.150Z,24.08
2023-04-08T08:43:46.563Z,26.90
2023-04-08T08:46:17.558Z,27.73
2023-04-08T08:48:46.527Z,26.65
2023-04-08T08:51:15.633Z,22.83
2023-04-08T08:53:45.680Z,23.95
2023-04-08T08:56:18.285Z,29.35
2023-04-08T08:58:47.953Z,30.35
2023-04-08T09:01:49.456Z,35.17
2023-04-08T09:04:23.101Z,34.67
2023-04-08T09:07:10.897Z,44.95
2023-04-08T09:09:51.716Z,43.20
2023-04-08T09:12:20.814Z,40.55
2023-04-08T09:14:49.223Z,33.47
2023-04-08T09:17:34.605Z,29.85
2023-04-08T09:20:13.788Z,37.08
2023-04-08T09:23:01.948Z,33.08
2023-04-08T09:25:32.825Z,33.38
2023-04-08T09:28:03.092Z,39.03
2023-04-08T09:30:31.647Z,33.38
2023-04-08T09:33:01.742Z,34.80
2023-04-08T09:35:30.188Z,39.15
2023-04-08T09:37:59.114Z,34.17
2023-04-08T09:40:27.416Z,35.97
2023-04-08T09:42:56.313Z,37.97
2023-04-08T09:45:24.565Z,44.67
2023-04-08T09:48:15.785Z,38.47
2023-04-08T09:50:50.648Z,40.78
2023-04-08T09:53:38.311Z,34.60
2023-04-08T09:56:08.929Z,35.83
2023-04-08T09:58:56.249Z,37.00
2023-04-08T10:01:35.187Z,30.83
2023-04-08T10:04:05.310Z,37.45
2023-04-08T10:06:33.692Z,33.75
2023-04-08T10:09:02.789Z,37.53
2023-04-08T10:11:31.189Z,36.58
2023-04-08T10:13:59.839Z,37.85
2023-04-08T10:16:28.363Z,36.65
2023-04-08T10:18:57.169Z,35.70
2023-04-08T10:21:48.716Z,40.38
2023-04-08T10:24:18.867Z,36.33
2023-04-08T10:26:49.004Z,40.33
2023-04-08T10:29:29.092Z,32.67
2023-04-08T10:31:58.127Z,36.47
2023-04-08T10:34:27.407Z,37.38
2023-04-08T10:36:59.005Z,32.78
2023-04-08T10:39:27.748Z,34.85
2023-04-08T10:41:56.610Z,35.05
2023-04-08T10:44:28.259Z,32.17
2023-04-08T10:46:56.692Z,30.20
2023-04-08T10:49:33.418Z,31.55
2023-04-08T10:52:01.823Z,36.15
2023-04-08T10:54:30.457Z,32.78
2023-04-08T10:56:58.735Z,36.03
2023-04-08T10:59:33.267Z,34.72
2023-04-08T11:02:02.915Z,38.15
2023-04-08T11:04:32.271Z,35.33
2023-04-08T11:07:00.807Z,29.65
2023-04-08T11:09:29.499Z,33.10
2023-04-08T11:11:57.799Z,33.13
2023-04-08T11:14:26.815Z,30.27
2023-04-08T11:16:55.169Z,33.45
2023-04-08T11:19:23.808Z,34.28
2023-04-08T11:21:52.098Z,33.72
2023-04-08T11:24:20.827Z,28.83
2023-04-08T11:26:49.108Z,33.60
2023-04-08T11:29:17.800Z,32.80
2023-04-08T11:31:47.365Z,29.58
2023-04-08T11:34:24.078Z,25.20
2023-04-08T11:36:52.657Z,25.65
2023-04-08T11:39:23.966Z,25.92
2023-04-08T11:41:52.262Z,26.90
2023-04-08T11:44:20.859Z,27.98
2023-04-08T11:46:58.927Z,26.08
2023-04-08T11:49:27.497Z,31.50
2023-04-08T11:51:59.956Z,24.08
2023-04-08T11:54:29.350Z,25.63
2023-04-08T11:56:58.613Z,23.23
2023-04-08T11:59:29.288Z,26.40
2023-04-08T12:01:59.163Z,24.77
2023-04-08T12:04:28.181Z,25.55
2023-04-08T12:06:58.264Z,26.90
2023-04-08T12:09:28.466Z,22.80
2023-04-08T12:11:57.718Z,24.55
2023-04-08T12:14:28.251Z,26.50
2023-04-08T12:16:56.902Z,22.75
2023-04-08T12:19:25.792Z,25.80
2023-04-08T12:21:54.156Z,20.83
2023-04-08T12:24:22.777Z,28.75
2023-04-08T12:26:51.104Z,21.45
2023-04-08T12:29:19.941Z,23.00
2023-04-08T12:31:48.224Z,21.75
2023-04-08T12:34:17.119Z,21.83
2023-04-08T12:36:45.319Z,26.42
2023-04-08T12:39:13.819Z,24.50
2023-04-08T12:41:42.109Z,19.48
2023-04-08T12:44:11.071Z,25.75
2023-04-08T12:46:39.467Z,22.58
2023-04-08T12:49:09.110Z,23.52
2023-04-08T12:51:37.570Z,23.85
2023-04-08T12:54:06.098Z,24.20
2023-04-08T12:56:34.834Z,25.38
2023-04-08T12:59:03.453Z,25.05
2023-04-08T13:01:32.072Z,22.70
2023-04-08T13:04:00.871Z,21.23
2023-04-08T13:06:29.204Z,20.52
2023-04-08T13:08:57.905Z,20.55
2023-04-08T13:11:26.077Z,22.40
2023-04-08T13:13:54.721Z,25.17
2023-04-08T13:16:23.023Z,22.85
2023-04-08T13:18:52.641Z,23.23
2023-04-08T13:21:21.583Z,25.40
2023-04-08T13:23:50.105Z,22.73
2023-04-08T13:26:18.427Z,21.33
2023-04-08T13:28:56.791Z,27.75
2023-04-08T13:31:26.652Z,27.17
2023-04-08T13:33:57.938Z,20.48
2023-04-08T13:36:29.234Z,18.80
2023-04-08T13:38:57.989Z,20.95
2023-04-08T13:41:28.262Z,15.98
2023-04-08T13:43:57.070Z,21.35
2023-04-08T13:46:25.441Z,22.85
2023-04-08T13:48:54.512Z,20.05
2023-04-08T13:51:22.997Z,16.75
2023-04-08T13:53:52.231Z,21.25
2023-04-08T13:56:21.198Z,21.60
2023-04-08T13:58:56.364Z,19.85
2023-04-08T14:01:25.968Z,16.55
2023-04-08T14:03:54.658Z,22.60
2023-04-08T14:06:22.916Z,16.98
2023-04-08T14:08:51.766Z,19.95
2023-04-08T14:11:20.157Z,20.52
2023-04-08T14:13:48.703Z,23.35
2023-04-08T14:16:16.963Z,20.63
2023-04-08T14:18:45.728Z,18.10
2023-04-08T14:21:15.814Z,23.83
2023-04-08T14:23:44.484Z,22.38
2023-04-08T14:26:12.673Z,18.83
2023-04-08T14:28:41.694Z,20.88
2023-04-08T14:31:09.987Z,20.85
2023-04-08T14:33:39.891Z,20.63
2023-04-08T14:36:09.040Z,20.73
2023-04-08T14:38:39.432Z,16.52
2023-04-08T14:41:08.502Z,17.90
2023-04-08T14:43:37.163Z,16.98
2023-04-08T14:46:05.706Z,16.90
2023-04-08T14:48:34.318Z,17.48
2023-04-08T14:51:02.535Z,14.30
2023-04-08T14:53:31.272Z,18.88
2023-04-08T14:56:00.239Z,19.30
2023-04-08T14:58:28.889Z,21.88
2023-04-08T15:00:57.159Z,19.33
2023-04-08T15:03:26.213Z,16.23
2023-04-08T15:05:57.828Z,16.90
2023-04-08T15:08:26.507Z,18.55
2023-04-08T15:10:54.756Z,20.85
2023-04-08T15:13:23.799Z,18.70
2023-04-08T15:15:52.169Z,17.55
2023-04-08T15:18:21.033Z,15.25
2023-04-08T15:20:49.277Z,12.35
2023-04-08T15:23:18.088Z,12.75
2023-04-08T15:25:46.589Z,9.60
2023-04-08T15:28:15.576Z,11.63
2023-04-08T15:30:44.031Z,10.95
2023-04-08T15:33:13.250Z,11.75
2023-04-08T15:35:41.953Z,9.52
2023-04-08T15:38:10.948Z,12.45
2023-04-08T15:40:39.434Z,11.63
2023-04-08T15:43:10.516Z,9.90
2023-04-08T15:45:44.448Z,9.57
2023-04-08T15:48:13.472Z,7.82
2023-04-08T15:50:42.331Z,8.50
2023-04-08T15:53:11.330Z,9.10
2023-04-08T15:55:40.849Z,12.00
2023-04-08T15:58:09.731Z,7.80
2023-04-08T16:00:38.205Z,8.30
2023-04-08T16:03:08.969Z,7.82
2023-04-08T16:05:39.915Z,8.63
2023-04-08T16:08:08.750Z,8.48
2023-04-08T16:10:37.509Z,7.72
2023-04-08T16:13:06.496Z,9.25
2023-04-08T16:15:35.837Z,7.72
2023-04-08T16:18:05.912Z,9.80
2023-04-08T16:20:38.015Z,5.53
2023-04-08T16:23:06.946Z,6.28
2023-04-08T16:25:35.528Z,6.70
2023-04-08T16:28:05.091Z,7.75
2023-04-08T16:30:33.582Z,5.00
2023-04-08T16:33:02.442Z,9.02
2023-04-08T16:35:30.878Z,5.22
2023-04-08T16:37:59.735Z,4.80
2023-04-08T16:40:28.566Z,5.95
2023-04-08T16:42:57.532Z,3.65
2023-04-08T16:45:28.625Z,8.13
2023-04-08T16:47:57.937Z,4.18
2023-04-08T16:50:27.413Z,4.57
2023-04-08T16:52:56.236Z,7.45
2023-04-08T16:55:24.770Z,4.13
2023-04-08T16:57:53.572Z,4.35
2023-04-08T17:00:22.438Z,5.13
2023-04-08T17:02:53.360Z,8.32
2023-04-08T17:05:26.311Z,4.32
2023-04-08T17:10:25.150Z,3.38
2023-04-08T17:12:54.025Z,7.88
2023-04-08T17:15:22.572Z,9.40
2023-04-08T17:17:52.711Z,4.18
2023-04-08T17:20:22.602Z,4.90
2023-04-08T17:22:51.584Z,11.60
2023-04-08T17:25:20.135Z,8.30
2023-04-08T17:27:48.978Z,12.05
2023-04-08T17:30:17.487Z,22.40
2023-04-08T17:32:46.323Z,7.95
2023-04-08T17:35:14.834Z,7.82
2023-04-08T17:37:43.588Z,6.60
2023-04-08T17:40:12.401Z,13.68
2023-04-08T17:42:41.573Z,8.30
2023-04-08T17:45:10.539Z,11.35
2023-04-08T17:47:39.623Z,14.20
2023-04-08T17:50:10.560Z,16.30
2023-04-08T17:52:46.252Z,10.95
2023-04-08T17:55:14.963Z,14.90
2023-04-08T17:57:43.823Z,8.88
2023-04-08T18:00:12.716Z,13.07
2023-04-08T18:02:42.950Z,11.15
2023-04-08T18:05:11.957Z,6.20
2023-04-08T18:07:40.833Z,7.50
2023-04-08T18:10:09.852Z,5.70
2023-04-08T18:12:38.782Z,7.30
2023-04-08T18:15:07.862Z,9.35
2023-04-08T18:17:37.107Z,7.85
2023-04-08T18:20:06.616Z,6.43
2023-04-08T18:22:35.481Z,3.92
2023-04-08T18:25:04.822Z,9.07
2023-04-08T18:27:34.041Z,5.40
2023-04-08T18:30:02.522Z,8.10
2023-04-08T18:32:31.573Z,7.13
2023-04-08T18:35:00.458Z,3.83
2023-04-08T18:37:30.576Z,7.05
2023-04-08T18:40:00.114Z,4.47
2023-04-08T18:42:29.156Z,7.25
2023-04-08T18:44:57.593Z,3.83
2023-04-08T18:47:26.722Z,5.82
2023-04-08T18:49:56.785Z,12.43
2023-04-08T18:52:25.913Z,4.80
2023-04-08T18:54:54.840Z,7.05
2023-04-08T18:57:23.713Z,7.63
2023-04-08T18:59:52.275Z,5.10
2023-04-08T19:02:23.131Z,10.38
2023-04-08T19:04:52.261Z,9.52
2023-04-08T19:07:21.139Z,5.82
2023-04-08T19:09:49.723Z,8.05
2023-04-08T19:12:18.562Z,4.00
2023-04-08T19:14:47.403Z,6.55
2023-04-08T19:17:16.429Z,5.15
2023-04-08T19:19:45.150Z,11.50
2023-04-08T19:22:14.042Z,6.05
2023-04-08T19:24:43.408Z,5.18
2023-04-08T19:27:14.403Z,5.47
2023-04-08T19:29:42.795Z,8.45
2023-04-08T19:32:13.488Z,4.55
2023-04-08T19:34:43.170Z,5.38
2023-04-08T19:37:12.885Z,4.18
2023-04-08T19:39:42.123Z,6.20
2023-04-08T19:42:13.017Z,6.10
2023-04-08T19:44:42.940Z,5.22
2023-04-08T19:47:12.477Z,7.88
2023-04-08T19:49:42.598Z,6.13
2023-04-08T19:52:12.768Z,5.15
2023-04-08T19:54:43.679Z,4.25
2023-04-08T19:57:12.978Z,5.78
2023-04-08T19:59:42.268Z,5.68
2023-04-08T20:02:11.517Z,5.78
2023-04-08T20:04:40.567Z,5.88
2023-04-08T20:07:09.702Z,6.95
2023-04-08T20:09:38.194Z,8.23
2023-04-08T20:12:07.010Z,6.65
2023-04-08T20:14:42.183Z,7.90
2023-04-08T20:17:13.189Z,8.93
2023-04-08T20:19:41.889Z,7.20
2023-04-08T20:22:10.670Z,8.35
2023-04-08T20:24:39.105Z,5.80
2023-04-08T20:27:08.677Z,7.20
2023-04-08T20:29:38.589Z,7.75
2023-04-08T20:32:07.789Z,7.75
2023-04-08T20:34:36.389Z,4.35
2023-04-08T20:37:05.218Z,7.53
2023-04-08T20:39:33.613Z,12.43
2023-04-08T20:42:02.352Z,6.20
2023-04-08T20:44:30.783Z,6.07
2023-04-08T20:46:59.581Z,5.00
2023-04-08T20:49:28.041Z,6.50
2023-04-08T20:51:56.953Z,7.80
2023-04-08T20:54:26.753Z,6.30
2023-04-08T20:56:56.232Z,6.93
2023-04-08T20:59:25.379Z,5.75
2023-04-08T21:01:54.910Z,5.22
2023-04-08T21:04:25.070Z,7.82
2023-04-08T21:06:53.918Z,5.05
2023-04-08T21:09:22.503Z,6.55
2023-04-08T21:11:51.216Z,7.22
2023-04-08T21:14:19.784Z,6.35
2023-04-08T21:16:48.657Z,7.00
2023-04-08T21:19:17.085Z,8.80
2023-04-08T21:21:46.747Z,6.38
2023-04-08T21:24:15.148Z,7.20
2023-04-08T21:26:43.879Z,8.60
2023-04-08T21:29:12.480Z,5.10
2023-04-08T21:31:42.492Z,10.25
2023-04-08T21:34:11.149Z,10.05
2023-04-08T21:36:39.797Z,6.72
2023-04-08T21:39:08.238Z,7.40
2023-04-08T21:41:36.919Z,8.23
2023-04-08T21:44:05.440Z,6.20
2023-04-08T21:46:34.161Z,5.97
2023-04-08T21:49:02.548Z,7.40
2023-04-08T21:51:31.299Z,4.90
2023-04-08T21:53:59.638Z,6.30
2023-04-08T21:56:28.408Z,7.50
2023-04-08T21:58:56.792Z,6.15
2023-04-08T22:01:25.522Z,5.68
2023-04-08T22:03:55.690Z,8.95
2023-04-08T22:06:32.229Z,5.72
2023-04-08T22:09:01.541Z,8.82
2023-04-08T22:11:30.914Z,9.00
2023-04-08T22:13:59.303Z,5.75
2023-04-08T22:16:28.394Z,8.13
2023-04-08T22:18:57.325Z,7.13
2023-04-08T22:21:26.422Z,7.43
2023-04-08T22:23:54.856Z,5.97
2023-04-08T22:26:23.715Z,5.63
2023-04-08T22:28:52.649Z,5.65
2023-04-08T22:31:22.404Z,6.50
2023-04-08T22:33:51.171Z,7.20
2023-04-08T22:36:19.907Z,4.88
2023-04-08T22:38:48.311Z,5.68
2023-04-08T22:41:21.007Z,7.40
2023-04-08T22:43:49.874Z,5.95
2023-04-08T22:46:20.183Z,7.43
2023-04-08T22:48:49.677Z,6.85
2023-04-08T22:51:18.596Z,6.35
2023-04-08T22:53:46.957Z,5.63
2023-04-08T22:56:15.803Z,5.18
2023-04-08T22:58:44.168Z,5.28
2023-04-08T23:01:15.206Z,7.43
2023-04-08T23:03:44.248Z,8.05
2023-04-08T23:06:12.953Z,7.50
2023-04-08T23:08:41.550Z,6.75
2023-04-08T23:11:10.262Z,5.25
2023-04-08T23:13:38.666Z,5.43
2023-04-08T23:16:07.505Z,5.13
2023-04-08T23:18:35.891Z,6.45
2023-04-08T23:21:04.890Z,6.95
2023-04-08T23:23:33.254Z,7.32
2023-04-08T23:26:02.042Z,7.25
2023-04-08T23:28:30.488Z,6.43
2023-04-08T23:30:59.236Z,6.68
2023-04-08T23:33:27.515Z,6.25
2023-04-08T23:35:56.311Z,6.68
2023-04-08T23:38:24.636Z,7.88
2023-04-08T23:40:53.481Z,6.72
2023-04-08T23:43:21.732Z,6.97
2023-04-08T23:45:50.432Z,7.05
2023-04-08T23:48:18.612Z,7.55
2023-04-08T23:50:54.510Z,7.50
2023-04-08T23:53:22.913Z,6.55
2023-04-08T23:55:51.822Z,6.35
2023-04-08T23:58:20.107Z,7.82
